CheckWX is a tool to help pilots better visualize weather data.  It is not intended as a substitute for an official pre-flight weather briefing.

02:36:28 UTC

KBMG METAR
Monroe County Airport
Bloomington, Indiana, USA
Current

43 mins ago

KBMG 060153Z 18006KT 10SM FEW100 07/M02 A3004 RMK AO2 SLP178 T00671017
Observed
Dec-6 @ 01:53 UTC
Wind
  • 180° at 6 KTS
Visibility
10 SM
Flight Rules
VFR
Cloud Levels
  • Few at 10,000' AGL
Temperature
C / 45°F
Dewpoint
-2°C / 28°F
Humidity
53%
Altimeter
30.04" Hg
Pressure
1017.32 hPa
Previous

2 hours ago

KBMG 060053Z 18005KT 10SM CLR 08/M02 A3005 RMK AO2 SLP180 T00781022
Observed
Dec-6 @ 00:53 UTC
Wind
  • 180° at 5 KTS
Visibility
10 SM
Flight Rules
VFR
Cloud Levels
  • Clear skies
Temperature
C / 46°F
Dewpoint
-2°C / 28°F
Humidity
50%
Altimeter
30.05" Hg
Pressure
1017.62 hPa
Previous

3 hours ago

KBMG 052353Z 18004KT 10SM CLR 04/M02 A3004 RMK AO2 SLP179 T00441017 10128 20039 53003
Observed
Dec-5 @ 23:53 UTC
Wind
  • 180° at 4 KTS
Visibility
10 SM
Flight Rules
VFR
Cloud Levels
  • Clear skies
Temperature
C / 39°F
Dewpoint
-2°C / 28°F
Humidity
65%
Altimeter
30.04" Hg
Pressure
1017.32 hPa